Portada
METAR-TAF:

METAR-TAF

Aeroports :

Tennant Creek, Austràlia

latitud: 19-38-04S, longitud: 134-11-00E, altitud: 377 m

Observació

L'informe es va fer fa 1 hora i 9 minuts, a les 03:00 UTC
Vent 7 kt del Nord-Est, variant entre Nord/Nord-Oest i Est
Temperatura 36°C
Humitat 18%
Pressió 1012 hPa
Visibilitat 10 km o més

METAR: YTNK 200300Z AUTO 05007KT 340V080 9999 // NCD 36/08 Q1012

Hora: 13:39 (04:09 UTC)

Pronòstic

L'informe es va fer fa 3 hores i 0 minuts, a les 01:09 UTC
Pronòstic vàlid del 20 a les 02 UTC al 20 a les 14 UTC
Vent 10 kt del Nord
Visibilitat 10 km o més
sense núvols per sota de 1500 mi sense presència de cumulonimbus.

TAF: YTNK 200109Z 2002/2014 35010KT CAVOK

Observacions i pronòstics meteorològics de més de 4000 aeroports (METAR i TAF).

Les estacions disponibles són els punts grocs i vermells al mapa.

Posi el ratolí al punt desitjat per veure el nom de l'estació.

Feu clic per veure les observacions i els pronòstics meteorològics.

Per canviar el mapa: feu clic els botons verds amb una creu de color negre per apropar; al botó verd amb un guió per allunyar la imatge; o en les fletxes verdes per a mapes adjacents.


METAR-TAF: